Delta, Utah Weather observations

Data are for observation ending at time listed.
 Day   Time    Ave.   Ave.  Ave.  Vector   Max.   Stn.    Total    Solar   Ave.  
  of    of     Air    Rel.  Wind   Wind    Wind   Baro.  Precip.   Rad.    Soil  
Year   Day     Temp.  Hum.  Speed  Dir.    Gust   Pres.                    Temp. 
2016   (MST)    F      %     mph   deg.    mph     mb.     in.     W/m2     F   
------------------------------------------------------------------------------
 268    0:20   46.9    86    1.1   130      2.1   862.6    0.00       0    60.8
 268    0:30   47.1    85    1.0   114      2.1   862.6    0.00       0    60.9
 268    0:40   47.1    85    1.1   110      2.0   862.7    0.00       0    60.9
 268    0:50   47.3    85    0.9    98      2.3   862.8    0.00       0    60.9
 268    1:00   47.4    85    0.7    89      2.2   862.8    0.00       0    60.8
 268    1:10   47.3    84    1.2   108      2.6   862.9    0.00       0    60.7
 268    1:20   47.3    84    1.2   108      2.4   862.9    0.00       0    60.7
 268    1:30   47.4    84    0.7   102      1.9   863.0    0.00       0    60.7
 268    1:40   47.4    84    1.1   117      2.0   862.9    0.00       0    60.6
 268    1:50   47.3    83    0.7   122      2.0   862.9    0.00       0    60.7
 268    2:00   47.2    83    0.2   128      1.3   862.9    0.00       0    60.7
 268    2:10   47.0    83    0.2   295      0.7   862.9    0.00       0    60.6
 268    2:20   46.6    83    0.1   294      0.9   862.8    0.00       0    60.6
 268    2:30   46.6    84    0.7   170      2.9   862.9    0.00       0    60.6
 268    2:40   46.8    83    1.1   189      2.4   862.8    0.00       0    60.5
 268    2:50   46.5    84    0.7   190      1.8   862.8    0.00       0    60.6
 268    3:00   46.4    85    0.8   172      1.8   863.0    0.00       0    60.5
 268    3:10   46.1    86    0.5   165      1.9   863.1    0.00       0    60.5
 268    3:20   46.0    86    0.7   177      1.6   863.1    0.00       0    60.5
 268    3:30   45.9    86    0.8   163      2.6   863.1    0.00       0    60.5
 268    3:40   45.7    87    0.1   155      1.1   863.3    0.00       0    60.5
 268    3:50   45.7    87    0.9   154      2.2   863.3    0.00       0    60.4
 268    4:00   46.0    87    0.7   168      1.7   863.3    0.00       0    60.3
 268    4:10   46.3    86    0.5   181      2.1   863.4    0.00       0    60.3
 268    4:20   46.4    86    1.2   204      2.6   863.5    0.00       0    60.2
 268    4:30   46.7    86    0.9   298      2.1   863.7    0.00       0    60.2
 268    4:40   46.5    86    1.4   312      3.2   863.9    0.00       0    60.2
 268    4:50   45.9    87    1.4     2      3.8   864.0    0.00       0    60.1
 268    5:00   46.0    87    1.8    45      5.1   864.0    0.00       0    60.2
 268    5:10   45.9    88    1.4    74      3.8   863.9    0.00       0    60.2
 268    5:20   46.1    88    0.8   215      3.5   864.1    0.00       0    60.0
 268    5:30   46.2    88    0.6   355      2.7   864.3    0.00       0    60.1
 268    5:40   46.3    88    0.5   305      2.0   864.4    0.00       0    60.1
 268    5:50   46.3    88    1.7    44      4.7   864.3    0.00       0    60.1
 268    6:00   46.4    88    0.9    73      2.9   864.5    0.00       0    60.0
 268    6:10   46.5    88    0.4   134      1.3   864.5    0.00       0    60.0
 268    6:20   46.8    87    0.2   294      1.3   864.6    0.00       0    60.0
 268    6:30   46.8    87    0.2   253      1.0   864.7    0.00       0    59.9
 268    6:40   47.0    87    0.8    44      1.9   864.8    0.00       2    60.0
 268    6:50   47.2    87    0.7    69      1.7   864.8    0.00       5    60.0
 268    7:00   47.2    86    0.7   184      2.0   865.0    0.00       9    59.9
 268    7:10   47.4    85    0.3   148      1.9   865.1    0.00      12    59.9
 268    7:20   47.6    85    1.1   136      2.6   865.3    0.00      23    59.9
 268    7:30   47.6    85    0.8    56      2.4   865.3    0.00      25    59.8
 268    7:40   47.3    84    0.0     0      0.0   865.4    0.00      31    59.8
 268    7:50   47.4    84    0.1    14      0.9   865.5    0.00      47    59.9
 268    8:00   47.9    84    0.9   137      2.0   865.4    0.00      63    59.8
 268    8:10   48.3    82    1.0   136      1.8   865.5    0.00      50    59.8
 268    8:20   48.5    80    0.7   192      1.5   865.7    0.00      74    59.8
 268    8:30   49.2    80    0.9   219      2.5   865.7    0.00     189    59.8
 268    8:40   50.3    78    1.5   234      3.0   865.8    0.00     176    59.8
 268    8:50   50.0    78    1.8   236      3.1   865.8    0.00      78    59.8
 268    9:00   50.5    79    2.0   243      3.4   865.8    0.00     302    59.8
 268    9:10   52.7    76    1.9   235      3.6   865.9    0.00     394    59.8
 268    9:20   54.0    66    1.7   241      4.0   866.0    0.00     420    59.8
 268    9:30   54.8    65    1.0   218      2.5   866.3    0.00     197    59.8
 268    9:40   55.1    66    1.9   173      5.3   866.3    0.00      75    59.8
 268    9:50   55.4    67    1.8   146      3.4   866.4    0.00     271    59.8
 268   10:00   55.6    62    2.2   267      5.6   866.6    0.00     102    59.8
 268   10:10   55.7    59    0.9   314      3.4   866.7    0.00      93    59.8
 268   10:20   56.3    57    2.1   343      4.6   866.6    0.00     300    59.8
 268   10:30   56.4    56    1.9   327      5.3   866.7    0.00     202    59.7
 268   10:40   56.6    57    1.8    20      4.7   866.8    0.00     492    59.8
 268   10:50   57.1    51    3.1   348      8.6   866.9    0.00     592    59.8
 268   11:00   57.4    50    4.1   357      9.3   866.9    0.00     608    59.9
 268   11:10   57.9    50    3.0   326      6.5   866.9    0.00     647    59.9
 268   11:20   58.7    51    3.3   359      8.0   866.9    0.00     667    59.9
 268   11:30   58.8    50    3.1    25      8.3   867.0    0.00     565    59.9
 268   11:40   58.3    51    3.7   346      9.4   867.0    0.00     596    59.9
 268   11:50   58.8    50    4.3   355      9.6   867.1    0.00     676    59.9
 268   12:00   59.3    50    3.3   358      7.5   867.1    0.00     473    59.9
 268   12:10   59.4    49    3.3   344      6.9   867.1    0.00     571    60.0
 268   12:20   60.3    48    2.8   354      6.0   867.0    0.00     677    59.9
 268   12:30   59.9    48    4.0   360      8.5   867.0    0.00     382    60.0
 268   12:40   60.2    50    3.9   355      8.0   867.0    0.00     505    60.0
 268   12:50   60.3    47    4.0     1     10.6   867.0    0.00     501    60.0
 268   13:00   60.7    43    4.3   313     11.0   866.8    0.00     578    60.1
 268   13:10   62.0    42    4.4   348     11.0   866.9    0.00     460    60.2
 268   13:20   61.4    42    4.3   328     10.2   866.9    0.00     308    60.3
 268   13:30   61.4    42    5.2   326     11.3   866.8    0.00     632    60.3
 268   13:40   62.5    40    4.2   341     11.8   866.8    0.00     548    60.4
 268   13:50   62.2    41    4.1   324      8.4   866.8    0.00     557    60.4
 268   14:00   62.6    40    4.6   338      9.6   866.9    0.00     517    60.5
 268   14:10   61.4    40    4.8   356      9.3   866.9    0.00     182    60.6
 268   14:20   61.6    42    3.4   325      9.9   866.9    0.00     329    60.6
 268   14:30   61.6    42    3.5   342      7.4   867.0    0.00     373    60.7
 268   14:40   62.2    40    3.7   337      7.3   867.1    0.00     364    60.8
 268   14:50   62.0    40    3.9   327      9.1   867.0    0.00     334    60.9
 268   15:00   62.5    40    3.9   348      9.5   867.0    0.00     327    60.9
 268   15:10   62.0    40    5.0   334     10.1   867.0    0.00     377    60.9
 268   15:20   61.7    40    4.2   344      7.6   867.0    0.00     356    60.9
 268   15:30   61.8    42    3.5   338      9.6   867.0    0.00      69    60.9
 268   15:40   62.1    41    3.4   315      9.1   867.0    0.00      51    61.0
 268   15:50   62.3    41    3.4   314      6.8   867.0    0.00     101    61.0
 268   16:00   61.8    42    3.8   353      9.2   867.0    0.00      47    61.0
 268   16:10   61.8    41    3.5   353      8.2   867.0    0.00      32    61.0
 268   16:20   61.9    39    3.5   332      8.0   867.0    0.00      29    61.0
 268   16:30   62.3    39    3.9   338      9.9   867.0    0.00      24    60.9
 268   16:40   61.9    40    3.6   312      7.2   867.1    0.00      24    61.0
 268   16:50   61.8    41    3.5   332      7.6   867.1    0.00      24    60.9
 268   17:00   61.8    40    4.1   347      9.4   867.2    0.00      23    61.0
 268   17:10   61.7    42    3.9   329      9.2   867.4    0.00      18    60.9
 268   17:20   61.4    42    4.6   345     10.2   867.5    0.00      18    60.9
 268   17:30   61.1    44    3.7   351      8.1   867.6    0.00      18    60.9
 268   17:40   60.8    45    3.8   352     10.4   867.7    0.00      17    60.9
 268   17:50   60.4    46    3.3   359      8.4   867.7    0.00      12    60.9
 268   18:00   60.0    44    3.9   357      8.8   867.7    0.00      12    60.9
 268   18:10   59.4    42    2.3   356      6.8   867.9    0.00       8    60.9
 268   18:20   58.5    42    2.3   354      5.3   867.9    0.00       6    60.8
 268   18:30   57.8    44    1.4   332      4.6   868.0    0.00       2    60.8
 268   18:40   57.1    46    2.0   334      4.7   868.2    0.00       0    60.8
 268   18:50   56.7    48    2.2   351      4.1   868.2    0.00       0    60.7
 268   19:00   55.9    51    2.9   357      6.6   868.2    0.00       0    60.8
 268   19:10   55.6    52    2.4   355      5.1   868.3    0.00       0    60.7
 268   19:20   55.5    52    2.5   353      5.3   868.4    0.00       0    60.7
 268   19:30   55.2    52    2.9   349      6.6   868.5    0.00       0    60.6
 268   19:40   55.0    53    2.0   348      5.0   868.4    0.00       0    60.6
 268   19:50   54.7    54    2.4   360      5.4   868.7    0.00       0    60.5
 268   20:00   54.2    57    1.8    21      3.9   868.9    0.00       0    60.6
 268   20:10   53.5    59    2.1    32      5.6   869.1    0.00       0    60.5
 268   20:20   53.8    60    2.0    43      5.7   869.3    0.00       0    60.5
 268   20:30   53.9    62    1.8    30      5.0   869.4    0.00       0    60.4
 268   20:40   53.8    64    1.3    19      4.2   869.5    0.00       0    60.4
 268   20:50   53.5    65    1.8    29      3.8   869.6    0.00       0    60.4
 268   21:00   53.2    66    1.4    35      3.7   869.7    0.00       0    60.3
 268   21:10   52.7    68    1.4    42      4.1   869.6    0.00       0    60.5
 268   21:20   52.1    69    0.9    50      3.6   869.5    0.00       0    60.2
 268   21:30   51.7    70    1.2    42      4.2   869.5    0.00       0    60.2
 268   21:40   51.5    71    1.1    36      2.6   869.6    0.00       0    60.2
 268   21:50   51.4    71    0.6    39      2.7   869.6    0.00       0    60.1
 268   22:00   51.2    71    0.3    28      1.8   869.7    0.00       0    60.1
 268   22:10   50.8    72    0.6   344      1.8   869.7    0.00       0    60.2
 268   22:20   50.4    73    0.6   286      1.8   869.9    0.00       0    60.2
 268   22:30   50.0    75    0.4   167      1.6   870.2    0.00       0    60.0
 268   22:40   49.4    76    0.6   269      2.0   870.1    0.00       0    60.0
 268   22:50   49.0    77    0.6   334      3.0   870.3    0.00       0    60.0
 268   23:00   48.3    79    1.2   353      3.1   870.6    0.00       0    59.9
 268   23:10   47.9    80    0.0     0      0.0   870.7    0.00       0    59.9
 268   23:20   47.7    80    0.8   330      1.6   870.7    0.00       0    59.9
 268   23:30   47.5    80    0.8   316      1.9   870.8    0.00       0    59.8
 268   23:40   47.4    80    1.3   326      2.7   870.7    0.00       0    59.7
 268   23:50   47.0    80    1.7   342      2.9   870.8    0.00       0    59.8
 269    0:00   46.9    80    1.2   329      2.4   870.8    0.00       0    59.6
 269    0:10   46.9    80    1.2   352      2.5   870.8    0.00       0    59.7

Return to Delta, Utah graphs page.


Western Regional Climate Center,wrcc@dri.edu